createdAt,value
2022-12-03T00:02:02.741Z,-0.40
2022-12-03T00:04:46.250Z,-0.37
2022-12-03T00:07:29.875Z,-0.46
2022-12-03T00:10:13.436Z,-0.69
2022-12-03T00:12:56.950Z,-0.74
2022-12-03T00:15:40.600Z,-0.58
2022-12-03T00:18:24.129Z,-0.65
2022-12-03T00:21:07.784Z,-0.63
2022-12-03T00:23:51.726Z,-0.51
2022-12-03T00:26:35.204Z,-0.48
2022-12-03T00:29:18.711Z,-0.44
2022-12-03T00:32:02.242Z,-0.55
2022-12-03T00:34:45.811Z,-0.55
2022-12-03T00:37:29.574Z,-0.49
2022-12-03T00:40:13.539Z,-0.47
2022-12-03T00:42:57.024Z,-0.47
2022-12-03T00:45:40.478Z,-0.56
2022-12-03T00:48:24.147Z,-0.44
2022-12-03T00:51:07.585Z,-0.38
2022-12-03T00:53:51.013Z,-0.52
2022-12-03T00:56:34.467Z,-0.53
2022-12-03T00:59:17.907Z,-0.52
2022-12-03T01:02:01.412Z,-0.64
2022-12-03T01:04:44.934Z,-0.56
2022-12-03T01:07:28.779Z,-0.34
2022-12-03T01:10:13.185Z,-0.41
2022-12-03T01:12:56.682Z,-0.53
2022-12-03T01:15:40.122Z,-0.44
2022-12-03T01:18:23.591Z,-0.22
2022-12-03T01:21:07.096Z,-0.50
2022-12-03T01:23:50.543Z,-0.52
2022-12-03T01:26:33.997Z,-0.12
2022-12-03T01:29:17.580Z,-0.27
2022-12-03T01:32:19.621Z,-0.78
2022-12-03T01:35:04.193Z,-0.54
2022-12-03T01:37:47.611Z,-0.51
2022-12-03T01:40:31.119Z,-0.69
2022-12-03T01:43:14.637Z,-0.55
2022-12-03T01:45:58.134Z,-0.74
2022-12-03T01:48:41.872Z,-0.70
2022-12-03T01:51:25.372Z,-0.91
2022-12-03T01:54:20.467Z,-0.72
2022-12-03T01:57:04.410Z,-0.75
2022-12-03T01:59:49.321Z,-0.78
2022-12-03T02:02:33.406Z,-0.83
2022-12-03T02:05:26.355Z,-0.77
2022-12-03T02:08:37.085Z,-0.92
2022-12-03T02:11:35.623Z,-0.59
2022-12-03T02:14:21.967Z,-0.53
2022-12-03T02:17:05.529Z,-0.70
2022-12-03T02:19:49.859Z,-0.71
2022-12-03T02:22:48.470Z,-0.79
2022-12-03T02:25:35.759Z,-0.99
2022-12-03T02:28:19.231Z,-0.71
2022-12-03T02:31:02.807Z,-0.82
2022-12-03T02:33:46.422Z,-0.88
2022-12-03T02:36:29.910Z,-0.85
2022-12-03T02:39:13.318Z,-0.93
2022-12-03T02:42:15.785Z,-0.69
2022-12-03T02:45:05.464Z,-0.72
2022-12-03T02:48:00.703Z,-0.79
2022-12-03T02:51:01.287Z,-0.48
2022-12-03T02:53:49.946Z,-0.61
2022-12-03T02:56:33.640Z,-0.74
2022-12-03T02:59:17.504Z,-0.85
2022-12-03T03:02:01.367Z,-0.71
2022-12-03T03:04:45.209Z,-0.55
2022-12-03T03:07:28.938Z,-0.62
2022-12-03T03:10:17.102Z,-0.62
2022-12-03T03:13:07.180Z,-0.50
2022-12-03T03:15:50.722Z,-0.60
2022-12-03T03:18:35.521Z,-0.61
2022-12-03T03:21:19.769Z,-0.62
2022-12-03T03:24:03.847Z,-0.66
2022-12-03T03:26:47.874Z,-0.91
2022-12-03T03:29:33.450Z,-0.78
2022-12-03T03:32:16.967Z,-0.69
2022-12-03T03:35:01.127Z,-0.66
2022-12-03T03:37:44.830Z,-0.69
2022-12-03T03:40:29.294Z,-0.67
2022-12-03T03:43:13.915Z,-0.60
2022-12-03T03:45:57.651Z,-0.48
2022-12-03T03:48:43.628Z,-0.79
2022-12-03T03:51:27.719Z,-0.60
2022-12-03T03:54:11.583Z,-0.55
2022-12-03T03:56:55.052Z,-0.56
2022-12-03T03:59:38.850Z,-0.93
2022-12-03T04:02:26.430Z,-0.75
2022-12-03T04:05:20.200Z,-0.66
2022-12-03T04:08:03.841Z,-0.78
2022-12-03T04:11:05.805Z,-0.70
2022-12-03T04:13:49.270Z,-0.79
2022-12-03T04:16:32.871Z,-0.76
2022-12-03T04:19:16.376Z,-0.74
2022-12-03T04:22:18.310Z,-0.60
2022-12-03T04:25:20.103Z,-0.54
2022-12-03T04:28:22.058Z,-0.45
2022-12-03T04:31:26.142Z,-0.55
2022-12-03T04:34:29.643Z,-0.65
2022-12-03T04:37:13.160Z,-0.82
2022-12-03T04:39:56.595Z,-0.72
2022-12-03T04:42:40.004Z,-0.75
2022-12-03T04:45:23.534Z,-0.74
2022-12-03T04:48:07.023Z,-0.76
2022-12-03T04:50:50.467Z,-0.75
2022-12-03T04:53:36.195Z,-0.88
2022-12-03T04:56:19.784Z,-0.87
2022-12-03T04:59:04.133Z,-0.84
2022-12-03T05:01:47.682Z,-0.73
2022-12-03T05:04:31.264Z,-1.06
2022-12-03T05:07:14.694Z,-1.04
2022-12-03T05:09:58.114Z,-0.85
2022-12-03T05:12:41.594Z,-1.04
2022-12-03T05:15:25.118Z,-1.01
2022-12-03T05:18:08.595Z,-0.79
2022-12-03T05:20:53.734Z,-0.92
2022-12-03T05:23:37.323Z,-0.86
2022-12-03T05:26:20.746Z,-0.98
2022-12-03T05:29:04.210Z,-0.69
2022-12-03T05:31:47.667Z,-0.97
2022-12-03T05:34:31.215Z,-0.84
2022-12-03T05:37:14.703Z,-0.70
2022-12-03T05:39:58.263Z,-0.44
2022-12-03T05:42:53.625Z,-0.49
2022-12-03T05:45:40.663Z,-0.71
2022-12-03T05:48:24.266Z,-0.95
2022-12-03T05:51:07.779Z,-0.83
2022-12-03T05:53:51.233Z,-0.80
2022-12-03T05:56:34.681Z,-0.73
2022-12-03T05:59:18.134Z,-1.01
2022-12-03T06:02:01.916Z,-0.80
2022-12-03T06:04:45.403Z,-0.74
2022-12-03T06:07:28.935Z,-1.02
2022-12-03T06:10:17.729Z,-1.05
2022-12-03T06:13:02.197Z,-0.78
2022-12-03T06:15:48.380Z,-0.68
2022-12-03T06:18:32.098Z,-0.71
2022-12-03T06:21:15.577Z,-0.71
2022-12-03T06:24:00.017Z,-0.57
2022-12-03T06:26:43.478Z,-0.74
2022-12-03T06:29:26.967Z,-0.89
2022-12-03T06:32:10.692Z,-1.57
2022-12-03T06:34:54.472Z,-1.30
2022-12-03T06:37:38.280Z,-1.18
2022-12-03T06:40:21.816Z,-1.12
2022-12-03T06:43:05.784Z,-0.67
2022-12-03T06:45:49.261Z,-1.30
2022-12-03T06:48:32.729Z,-1.31
2022-12-03T06:51:16.257Z,-1.23
2022-12-03T06:53:59.729Z,-1.30
2022-12-03T06:56:45.432Z,-1.23
2022-12-03T06:59:29.009Z,-0.93
2022-12-03T07:02:12.848Z,-0.84
2022-12-03T07:04:56.738Z,-0.84
2022-12-03T07:07:40.493Z,-1.20
2022-12-03T07:10:24.106Z,-1.13
2022-12-03T07:13:07.626Z,-1.14
2022-12-03T07:15:51.105Z,-1.06
2022-12-03T07:18:34.590Z,-1.20
2022-12-03T07:21:18.189Z,-0.94
2022-12-03T07:24:01.781Z,-0.87
2022-12-03T07:26:45.485Z,-0.89
2022-12-03T07:29:29.615Z,-1.14
2022-12-03T07:32:13.093Z,-1.15
2022-12-03T07:34:56.639Z,-1.06
2022-12-03T07:37:40.133Z,-0.87
2022-12-03T07:40:23.736Z,-0.96
2022-12-03T07:43:07.284Z,-0.92
2022-12-03T07:45:50.910Z,-1.23
2022-12-03T07:48:34.474Z,-1.18
2022-12-03T07:51:17.992Z,-1.07
2022-12-03T07:54:01.471Z,-1.06
2022-12-03T07:56:44.974Z,-1.21
2022-12-03T07:59:29.649Z,-0.94
2022-12-03T08:02:19.539Z,-0.94
2022-12-03T08:05:05.280Z,-0.92
2022-12-03T08:07:49.018Z,-1.02
2022-12-03T08:10:32.652Z,-0.87
2022-12-03T08:13:18.981Z,-0.82
2022-12-03T08:16:19.220Z,-0.86
2022-12-03T08:19:09.683Z,-0.82
2022-12-03T08:21:57.974Z,-0.89
2022-12-03T08:24:44.832Z,-0.84
2022-12-03T08:27:28.351Z,-0.85
2022-12-03T08:30:15.297Z,-0.76
2022-12-03T08:32:59.451Z,-0.73
2022-12-03T08:35:50.102Z,-0.75
2022-12-03T08:38:33.880Z,-1.10
2022-12-03T08:41:38.495Z,-1.00
2022-12-03T08:44:38.561Z,-0.73
2022-12-03T08:47:24.293Z,-0.56
2022-12-03T08:50:28.059Z,-0.60
2022-12-03T08:53:14.456Z,-0.28
2022-12-03T08:56:06.475Z,-0.46
2022-12-03T08:58:53.773Z,-0.30
2022-12-03T09:01:48.982Z,-0.04
2022-12-03T09:04:48.250Z,-1.07
2022-12-03T09:07:31.816Z,-0.46
2022-12-03T09:10:15.720Z,-0.65
2022-12-03T09:12:59.290Z,-0.58
2022-12-03T09:15:42.769Z,-0.06
2022-12-03T09:18:26.261Z,-0.29
2022-12-03T09:21:09.740Z,0.15
2022-12-03T09:23:53.229Z,-0.11
2022-12-03T09:26:36.708Z,-0.58
2022-12-03T09:29:20.207Z,-0.43
2022-12-03T09:32:04.222Z,-0.39
2022-12-03T09:34:47.798Z,-0.38
2022-12-03T09:37:31.257Z,-0.19
2022-12-03T09:40:15.240Z,-0.17
2022-12-03T09:42:58.798Z,-0.32
2022-12-03T09:45:46.350Z,-0.33
2022-12-03T09:48:30.095Z,-0.35
2022-12-03T09:51:14.226Z,-0.28
2022-12-03T09:54:01.024Z,-0.08
2022-12-03T09:56:44.535Z,-0.67
2022-12-03T09:59:32.828Z,-0.34
2022-12-03T10:02:30.711Z,-0.19
2022-12-03T10:05:15.579Z,-0.12
2022-12-03T10:08:13.195Z,-0.15
2022-12-03T10:10:57.039Z,-0.54
2022-12-03T10:13:41.684Z,-0.44
2022-12-03T10:16:27.964Z,-0.59
2022-12-03T10:19:26.100Z,-0.70
2022-12-03T10:22:09.691Z,-0.60
2022-12-03T10:25:21.951Z,-0.29
2022-12-03T10:28:05.412Z,-0.32
2022-12-03T10:30:55.701Z,-0.38
2022-12-03T10:33:47.332Z,-0.51
2022-12-03T10:36:30.924Z,-0.45
2022-12-03T10:39:17.129Z,-0.14
2022-12-03T10:42:16.246Z,-0.18
2022-12-03T10:45:13.516Z,0.04
2022-12-03T10:48:27.442Z,-0.16
2022-12-03T10:51:21.276Z,-0.17
2022-12-03T10:54:19.417Z,-0.03
2022-12-03T10:57:03.165Z,-0.26
2022-12-03T10:59:46.651Z,-0.09
2022-12-03T11:02:30.162Z,-0.17
2022-12-03T11:05:17.466Z,-0.02
2022-12-03T11:08:01.156Z,-0.11
2022-12-03T11:10:44.935Z,-0.12
2022-12-03T11:13:34.418Z,-0.16
2022-12-03T11:16:39.868Z,0.14
2022-12-03T11:19:45.082Z,-0.13
2022-12-03T11:22:45.943Z,-0.04
2022-12-03T11:25:29.441Z,0.04
2022-12-03T11:28:15.629Z,-0.04
2022-12-03T11:31:11.805Z,0.25
2022-12-03T11:34:21.149Z,-0.22
2022-12-03T11:37:10.803Z,-0.32
2022-12-03T11:40:26.677Z,-0.19
2022-12-03T11:43:10.860Z,-0.22
2022-12-03T11:45:56.281Z,-0.13
2022-12-03T11:48:45.905Z,-0.12
2022-12-03T11:51:30.717Z,-0.35
2022-12-03T11:54:18.884Z,-0.22
2022-12-03T11:57:03.110Z,-0.07
2022-12-03T12:16:55.878Z,-0.16
2022-12-03T12:19:45.097Z,-0.14
2022-12-03T12:22:31.559Z,-0.05
2022-12-03T12:25:54.229Z,-0.11
2022-12-03T12:28:38.027Z,-0.43
2022-12-03T12:31:21.927Z,-0.42
2022-12-03T12:34:12.702Z,-0.17
2022-12-03T12:37:02.176Z,-0.31
2022-12-03T12:39:46.568Z,-0.16
2022-12-03T12:42:43.969Z,-0.26
2022-12-03T12:45:31.033Z,-0.34
2022-12-03T12:48:32.214Z,-0.25
2022-12-03T12:51:22.097Z,-0.21
2022-12-03T12:54:14.224Z,-0.28
2022-12-03T12:56:57.654Z,-0.15
2022-12-03T12:59:41.586Z,-0.25
2022-12-03T13:02:31.029Z,-0.05
2022-12-03T13:05:14.829Z,-0.16
2022-12-03T13:07:58.425Z,-0.22
2022-12-03T13:10:42.561Z,-0.27
2022-12-03T13:13:43.535Z,-0.24
2022-12-03T13:16:34.092Z,0.17
2022-12-03T13:19:24.448Z,0.07
2022-12-03T13:22:19.843Z,-0.03
2022-12-03T13:28:44.456Z,-0.28
2022-12-03T13:31:41.968Z,-0.06
2022-12-03T13:34:33.468Z,0.06
2022-12-03T13:37:21.438Z,-0.13
2022-12-03T13:40:23.074Z,-0.01
2022-12-03T13:43:18.710Z,-0.38
2022-12-03T13:46:02.265Z,-0.15
2022-12-03T13:48:45.954Z,0.18
2022-12-03T13:51:33.424Z,0.37
2022-12-03T13:54:26.615Z,0.11
2022-12-03T13:57:10.460Z,-0.01
2022-12-03T13:59:54.764Z,0.26
2022-12-03T14:02:38.479Z,-0.05
2022-12-03T14:05:22.086Z,0.13
2022-12-03T14:08:06.303Z,-0.05
2022-12-03T14:10:50.175Z,0.02
2022-12-03T14:13:35.647Z,0.15
2022-12-03T14:16:19.158Z,-0.11
2022-12-03T14:19:02.819Z,-0.24
2022-12-03T14:21:46.292Z,-0.01
2022-12-03T14:24:29.954Z,-0.27
2022-12-03T14:27:13.524Z,0.05
2022-12-03T14:29:57.395Z,0.17
2022-12-03T14:32:40.987Z,0.10
2022-12-03T14:35:24.432Z,0.11
2022-12-03T14:38:07.842Z,0.03
2022-12-03T14:40:51.444Z,0.16
2022-12-03T14:43:34.859Z,-0.12
2022-12-03T14:46:18.467Z,0.01
2022-12-03T14:49:01.987Z,0.23
2022-12-03T14:51:45.398Z,0.21
2022-12-03T14:54:29.043Z,0.00
2022-12-03T14:57:14.931Z,-0.29
2022-12-03T14:59:58.405Z,-0.16
2022-12-03T15:02:41.887Z,-0.21
2022-12-03T15:05:28.738Z,-0.21
2022-12-03T15:08:12.675Z,-0.05
2022-12-03T15:10:56.487Z,-0.10
2022-12-03T15:13:40.002Z,-0.27
2022-12-03T15:16:23.885Z,-0.05
2022-12-03T15:19:07.584Z,-0.06
2022-12-03T15:21:51.038Z,-0.14
2022-12-03T15:24:34.490Z,-0.22
2022-12-03T15:27:17.957Z,-0.06
2022-12-03T15:30:01.417Z,-0.04
2022-12-03T15:32:44.870Z,0.28
2022-12-03T15:35:30.334Z,0.13
2022-12-03T15:38:13.921Z,0.05
2022-12-03T15:40:58.087Z,0.16
2022-12-03T15:43:41.495Z,-0.07
2022-12-03T15:46:27.833Z,-0.15
2022-12-03T15:49:11.656Z,-0.20
2022-12-03T15:51:55.231Z,-0.15
2022-12-03T15:54:38.719Z,-0.16
2022-12-03T15:57:22.246Z,-0.30
2022-12-03T16:00:07.219Z,-0.21
2022-12-03T16:02:55.675Z,-0.35
2022-12-03T16:05:39.273Z,-0.39
2022-12-03T16:08:22.917Z,-0.41
2022-12-03T16:11:06.698Z,-0.24
2022-12-03T16:13:50.231Z,-0.26
2022-12-03T16:16:33.877Z,-0.17
2022-12-03T16:19:17.420Z,-0.37
2022-12-03T16:22:00.843Z,-0.23
2022-12-03T16:24:44.705Z,-0.47
2022-12-03T16:27:28.153Z,-0.33
2022-12-03T16:30:12.631Z,-0.48
2022-12-03T16:32:56.132Z,-0.47
2022-12-03T16:35:39.681Z,-0.37
2022-12-03T16:38:23.125Z,-0.41
2022-12-03T16:41:06.667Z,-0.14
2022-12-03T16:43:50.309Z,-0.22
2022-12-03T16:46:34.054Z,-0.46
2022-12-03T16:49:17.547Z,-0.31
2022-12-03T16:52:01.073Z,-0.16
2022-12-03T16:54:44.604Z,-0.25
2022-12-03T16:57:33.387Z,-0.26
2022-12-03T17:00:17.614Z,-0.22
2022-12-03T17:03:01.195Z,-0.33
2022-12-03T17:05:45.440Z,-0.23
2022-12-03T17:08:29.072Z,-0.24
2022-12-03T17:11:12.607Z,-0.22
2022-12-03T17:13:56.132Z,-0.29
2022-12-03T17:16:39.607Z,-0.28
2022-12-03T17:19:23.079Z,-0.25
2022-12-03T17:22:06.762Z,-0.11
2022-12-03T17:24:50.180Z,-0.27
2022-12-03T17:27:33.650Z,-0.13
2022-12-03T17:30:17.909Z,-0.09
2022-12-03T17:33:01.750Z,0.04
2022-12-03T17:35:46.577Z,0.06
2022-12-03T17:38:35.637Z,0.02
2022-12-03T17:41:22.539Z,-0.25
2022-12-03T17:44:10.731Z,-0.10
2022-12-03T17:46:55.712Z,-0.11
2022-12-03T17:49:39.225Z,-0.44
2022-12-03T17:52:22.727Z,-0.23
2022-12-03T17:55:13.949Z,-0.04
2022-12-03T17:58:01.440Z,-0.14
2022-12-03T18:00:45.254Z,-0.23
2022-12-03T18:03:28.806Z,-0.06
2022-12-03T18:06:12.424Z,-0.11
2022-12-03T18:08:55.970Z,-0.13
2022-12-03T18:11:39.520Z,-0.09
2022-12-03T18:14:22.984Z,-0.09
2022-12-03T18:48:56.881Z,-0.07
2022-12-03T18:51:48.315Z,-0.17
2022-12-03T18:54:37.748Z,-0.16
2022-12-03T18:57:24.426Z,0.00
2022-12-03T19:00:13.884Z,-0.09
2022-12-03T19:03:05.192Z,0.19
2022-12-03T19:05:48.761Z,0.16
2022-12-03T19:08:32.216Z,0.15
2022-12-03T19:11:15.793Z,0.05
2022-12-03T19:13:59.652Z,0.06
2022-12-03T19:16:44.652Z,0.33
2022-12-03T19:19:29.864Z,0.07
2022-12-03T19:22:13.623Z,0.06
2022-12-03T19:24:57.236Z,-0.06
2022-12-03T19:27:40.863Z,-0.07
2022-12-03T19:30:24.630Z,0.17
2022-12-03T19:33:08.176Z,-0.04
2022-12-03T19:35:51.683Z,0.26
2022-12-03T19:38:35.726Z,0.20
2022-12-03T19:41:20.821Z,-0.03
2022-12-03T19:44:10.610Z,-0.12
2022-12-03T19:46:54.464Z,0.02
2022-12-03T19:49:37.916Z,-0.10
2022-12-03T19:52:21.346Z,0.12
2022-12-03T19:55:05.476Z,0.26
2022-12-03T19:57:49.078Z,0.20
2022-12-03T20:00:34.258Z,0.10
2022-12-03T20:03:17.760Z,0.20
2022-12-03T20:06:02.138Z,0.18
2022-12-03T20:08:46.356Z,0.09
2022-12-03T20:11:33.471Z,0.27
2022-12-03T20:14:18.076Z,0.12
2022-12-03T20:17:01.810Z,-0.06
2022-12-03T20:19:45.523Z,0.26
2022-12-03T20:22:28.955Z,-0.01
2022-12-03T20:25:12.518Z,0.02
2022-12-03T20:27:56.126Z,0.01
2022-12-03T20:30:39.588Z,0.08
2022-12-03T20:33:23.094Z,-0.12
2022-12-03T20:36:08.055Z,-0.09
2022-12-03T20:38:57.465Z,-0.01
2022-12-03T20:41:40.967Z,0.13
2022-12-03T20:44:24.464Z,0.25
2022-12-03T20:47:08.276Z,0.10
2022-12-03T20:49:52.091Z,0.45
2022-12-03T20:52:35.862Z,0.07
2022-12-03T20:55:19.351Z,0.16
2022-12-03T20:58:03.821Z,0.20
2022-12-03T21:00:47.526Z,0.10
2022-12-03T21:03:31.188Z,0.12
2022-12-03T21:06:16.065Z,0.25
2022-12-03T21:09:00.895Z,0.50
2022-12-03T21:11:44.559Z,0.57
2022-12-03T21:14:28.349Z,0.05
2022-12-03T21:17:11.950Z,0.16
2022-12-03T21:19:56.131Z,0.07
2022-12-03T21:22:39.882Z,0.29
2022-12-03T21:25:23.597Z,0.36
2022-12-03T21:28:09.483Z,0.51
2022-12-03T21:30:53.134Z,0.17
2022-12-03T21:33:37.544Z,0.21
2022-12-03T21:36:21.743Z,0.24
2022-12-03T21:39:06.311Z,0.13
2022-12-03T21:42:22.158Z,0.64
2022-12-03T21:44:53.741Z,0.25
2022-12-03T21:47:37.852Z,0.08
2022-12-03T21:50:21.659Z,0.13
2022-12-03T21:53:05.390Z,0.37
2022-12-03T21:55:49.247Z,0.59
2022-12-03T21:58:33.549Z,0.46
2022-12-03T22:01:23.562Z,0.49
2022-12-03T22:04:07.084Z,0.44
2022-12-03T22:06:50.563Z,0.35
2022-12-03T22:09:34.179Z,0.27
2022-12-03T22:12:17.626Z,0.21
2022-12-03T22:15:01.111Z,0.41
2022-12-03T22:17:44.559Z,0.38
2022-12-03T22:20:28.023Z,0.42
2022-12-03T22:23:11.469Z,0.45
2022-12-03T22:26:05.177Z,0.55
2022-12-03T22:28:50.408Z,0.17
2022-12-03T22:31:33.966Z,0.35
2022-12-03T22:34:17.461Z,-0.04
2022-12-03T22:37:00.952Z,0.18
2022-12-03T22:39:44.486Z,0.37
2022-12-03T22:42:28.037Z,0.53
2022-12-03T22:45:11.556Z,0.57
2022-12-03T22:47:55.043Z,0.57
2022-12-03T22:50:44.490Z,0.57
2022-12-03T22:53:28.013Z,0.50
2022-12-03T22:56:11.889Z,0.39
2022-12-03T22:58:55.737Z,0.34
2022-12-03T23:01:41.415Z,0.34
2022-12-03T23:04:24.996Z,0.60
2022-12-03T23:07:08.538Z,0.35
2022-12-03T23:09:52.225Z,0.55
2022-12-03T23:12:36.556Z,0.39
2022-12-03T23:15:20.042Z,0.46
2022-12-03T23:18:03.656Z,0.25
2022-12-03T23:20:51.489Z,0.50
2022-12-03T23:23:35.080Z,0.12
2022-12-03T23:26:19.468Z,0.48
2022-12-03T23:29:03.754Z,0.02
2022-12-03T23:31:47.294Z,0.45
2022-12-03T23:34:30.809Z,0.69
2022-12-03T23:37:14.343Z,0.34
2022-12-03T23:39:57.930Z,0.54
2022-12-03T23:42:41.513Z,0.44
2022-12-03T23:45:24.985Z,0.28
2022-12-03T23:48:08.725Z,0.58
2022-12-03T23:50:52.178Z,0.62
2022-12-03T23:53:37.620Z,0.49
2022-12-03T23:56:25.839Z,0.63
2022-12-03T23:59:09.479Z,0.60
